sensor_id;sensor_type;location;lat;lon;timestamp;pressure;altitude;pressure_sealevel;temperature;humidity
75668;BME280;64266;48.798;44.756;2023-02-02T00:04:52;101397.25;;;1.70;53.30
75668;BME280;64266;48.798;44.756;2023-02-02T00:09:55;101402.53;;;1.60;53.27
75668;BME280;64266;48.798;44.756;2023-02-02T00:14:57;101374.91;;;1.48;53.21
75668;BME280;64266;48.798;44.756;2023-02-02T00:20:00;101403.44;;;1.41;53.35
75668;BME280;64266;48.798;44.756;2023-02-02T00:25:04;101379.41;;;1.28;53.26
75668;BME280;64266;48.798;44.756;2023-02-02T00:30:07;101372.53;;;1.27;53.79
75668;BME280;64266;48.798;44.756;2023-02-02T00:35:11;101383.09;;;1.35;54.46
75668;BME280;64266;48.798;44.756;2023-02-02T00:40:15;101358.88;;;1.33;54.18
75668;BME280;64266;48.798;44.756;2023-02-02T00:45:18;101350.03;;;1.53;53.95
75668;BME280;64266;48.798;44.756;2023-02-02T00:50:21;101393.41;;;1.74;52.28
75668;BME280;64266;48.798;44.756;2023-02-02T00:55:24;101370.69;;;1.47;54.30
75668;BME280;64266;48.798;44.756;2023-02-02T01:00:27;101384.09;;;1.61;52.74
75668;BME280;64266;48.798;44.756;2023-02-02T01:05:31;101350.09;;;1.34;53.81
75668;BME280;64266;48.798;44.756;2023-02-02T01:10:34;101368.75;;;1.49;53.23
75668;BME280;64266;48.798;44.756;2023-02-02T01:15:37;101354.72;;;1.50;53.43
75668;BME280;64266;48.798;44.756;2023-02-02T01:20:40;101351.41;;;1.48;54.26
75668;BME280;64266;48.798;44.756;2023-02-02T01:25:44;101342.56;;;1.58;54.46
75668;BME280;64266;48.798;44.756;2023-02-02T01:30:48;101361.69;;;1.86;53.07
75668;BME280;64266;48.798;44.756;2023-02-02T01:35:54;101208.16;;;0.89;52.64
75668;BME280;64266;48.798;44.756;2023-02-02T01:40:58;101345.72;;;1.89;53.08
75668;BME280;64266;48.798;44.756;2023-02-02T01:46:01;101326.56;;;1.89;53.13
75668;BME280;64266;48.798;44.756;2023-02-02T01:51:07;101317.75;;;1.72;53.93
75668;BME280;64266;48.798;44.756;2023-02-02T01:56:14;101312.34;;;1.74;52.72
75668;BME280;64266;48.798;44.756;2023-02-02T02:01:18;101331.53;;;2.09;53.59
75668;BME280;64266;48.798;44.756;2023-02-02T02:06:22;101308.81;;;1.92;53.28
75668;BME280;64266;48.798;44.756;2023-02-02T02:11:27;101311.63;;;1.81;53.16
75668;BME280;64266;48.798;44.756;2023-02-02T02:32:48;101313.97;;;2.02;53.91
75668;BME280;64266;48.798;44.756;2023-02-02T02:38:19;101323.00;;;1.90;52.95
75668;BME280;64266;48.798;44.756;2023-02-02T02:43:31;101336.06;;;1.90;53.50
75668;BME280;64266;48.798;44.756;2023-02-02T02:48:35;101326.97;;;1.94;54.15
75668;BME280;64266;48.798;44.756;2023-02-02T02:53:38;101326.91;;;1.76;53.13
75668;BME280;64266;48.798;44.756;2023-02-02T03:04:11;101349.38;;;1.96;54.59
75668;BME280;64266;48.798;44.756;2023-02-02T03:09:32;101349.44;;;1.87;53.98
75668;BME280;64266;48.798;44.756;2023-02-02T03:14:37;101364.44;;;2.12;54.01
75668;BME280;64266;48.798;44.756;2023-02-02T03:19:40;101363.84;;;2.36;54.46
75668;BME280;64266;48.798;44.756;2023-02-02T03:24:43;101377.16;;;2.60;52.74
75668;BME280;64266;48.798;44.756;2023-02-02T03:29:45;101385.38;;;2.65;52.50
75668;BME280;64266;48.798;44.756;2023-02-02T03:34:48;101392.84;;;2.78;52.40
75668;BME280;64266;48.798;44.756;2023-02-02T03:39:51;101324.31;;;2.21;53.23
75668;BME280;64266;48.798;44.756;2023-02-02T03:44:55;101405.13;;;2.77;51.49
75668;BME280;64266;48.798;44.756;2023-02-02T03:49:57;101374.84;;;1.94;53.19
75668;BME280;64266;48.798;44.756;2023-02-02T03:55:00;101389.78;;;1.84;53.60
75668;BME280;64266;48.798;44.756;2023-02-02T04:00:04;101409.78;;;2.03;54.75
75668;BME280;64266;48.798;44.756;2023-02-02T04:05:13;101370.78;;;1.82;54.55
75668;BME280;64266;48.798;44.756;2023-02-02T04:10:17;101437.78;;;2.20;53.29
75668;BME280;64266;48.798;44.756;2023-02-02T04:15:20;101443.25;;;1.99;53.48
75668;BME280;64266;48.798;44.756;2023-02-02T04:20:23;101433.78;;;1.89;54.83
75668;BME280;64266;48.798;44.756;2023-02-02T04:25:26;101455.59;;;2.07;54.39
75668;BME280;64266;48.798;44.756;2023-02-02T04:30:29;101426.72;;;1.99;54.62
75668;BME280;64266;48.798;44.756;2023-02-02T04:35:32;101447.16;;;2.13;54.31
75668;BME280;64266;48.798;44.756;2023-02-02T04:40:39;101476.47;;;2.16;54.70
75668;BME280;64266;48.798;44.756;2023-02-02T04:45:42;101441.63;;;1.89;55.10
75668;BME280;64266;48.798;44.756;2023-02-02T04:50:45;101456.88;;;2.03;54.07
75668;BME280;64266;48.798;44.756;2023-02-02T04:55:48;101484.84;;;2.20;54.17
75668;BME280;64266;48.798;44.756;2023-02-02T05:00:51;101498.53;;;2.14;54.23
75668;BME280;64266;48.798;44.756;2023-02-02T05:06:03;101516.22;;;2.30;54.67
75668;BME280;64266;48.798;44.756;2023-02-02T05:11:07;101494.59;;;2.55;52.97
75668;BME280;64266;48.798;44.756;2023-02-02T05:16:11;101471.41;;;2.60;53.64
75668;BME280;64266;48.798;44.756;2023-02-02T05:21:14;101454.63;;;2.35;52.96
75668;BME280;64266;48.798;44.756;2023-02-02T05:26:24;101492.66;;;2.57;52.90
75668;BME280;64266;48.798;44.756;2023-02-02T05:31:28;101493.19;;;2.60;51.95
75668;BME280;64266;48.798;44.756;2023-02-02T05:36:33;101499.25;;;2.61;52.12
75668;BME280;64266;48.798;44.756;2023-02-02T05:41:36;101489.72;;;2.42;52.31
75668;BME280;64266;48.798;44.756;2023-02-02T05:46:40;101471.75;;;2.47;52.40
75668;BME280;64266;48.798;44.756;2023-02-02T05:51:47;101505.09;;;2.90;52.37
75668;BME280;64266;48.798;44.756;2023-02-02T05:56:52;101513.47;;;2.94;52.18
75668;BME280;64266;48.798;44.756;2023-02-02T06:01:56;101501.50;;;2.91;51.82
75668;BME280;64266;48.798;44.756;2023-02-02T06:06:58;101512.81;;;2.92;51.68
75668;BME280;64266;48.798;44.756;2023-02-02T06:12:01;101521.50;;;3.10;52.71
75668;BME280;64266;48.798;44.756;2023-02-02T06:17:09;101519.81;;;3.26;52.52
75668;BME280;64266;48.798;44.756;2023-02-02T06:22:11;101513.78;;;3.26;51.66
75668;BME280;64266;48.798;44.756;2023-02-02T06:27:15;101522.97;;;3.30;51.42
75668;BME280;64266;48.798;44.756;2023-02-02T06:32:18;101490.06;;;3.10;51.52
75668;BME280;64266;48.798;44.756;2023-02-02T06:37:21;101533.16;;;3.33;51.75
75668;BME280;64266;48.798;44.756;2023-02-02T06:42:23;101522.00;;;3.31;51.38
75668;BME280;64266;48.798;44.756;2023-02-02T06:47:25;101518.53;;;3.48;51.71
75668;BME280;64266;48.798;44.756;2023-02-02T06:52:28;101512.19;;;3.33;51.17
75668;BME280;64266;48.798;44.756;2023-02-02T06:57:30;101536.66;;;3.59;51.58
75668;BME280;64266;48.798;44.756;2023-02-02T07:02:34;101536.66;;;3.59;50.92
75668;BME280;64266;48.798;44.756;2023-02-02T07:07:36;101541.28;;;3.65;51.75
75668;BME280;64266;48.798;44.756;2023-02-02T07:12:39;101547.81;;;3.61;49.74
75668;BME280;64266;48.798;44.756;2023-02-02T07:17:42;101524.63;;;3.31;51.44
75668;BME280;64266;48.798;44.756;2023-02-02T07:22:44;101529.31;;;3.63;51.19
75668;BME280;64266;48.798;44.756;2023-02-02T07:27:52;101539.31;;;3.67;49.44
75668;BME280;64266;48.798;44.756;2023-02-02T07:32:56;101554.75;;;3.70;50.32
75668;BME280;64266;48.798;44.756;2023-02-02T07:38:00;101556.75;;;3.76;48.95
75668;BME280;64266;48.798;44.756;2023-02-02T07:43:03;101556.25;;;3.99;48.09
75668;BME280;64266;48.798;44.756;2023-02-02T07:48:06;101544.53;;;4.11;47.68
75668;BME280;64266;48.798;44.756;2023-02-02T07:53:09;101556.25;;;4.24;47.06
75668;BME280;64266;48.798;44.756;2023-02-02T07:58:12;101497.19;;;3.95;47.16
75668;BME280;64266;48.798;44.756;2023-02-02T08:03:14;101529.84;;;4.26;47.14
75668;BME280;64266;48.798;44.756;2023-02-02T08:08:17;101538.38;;;4.28;48.20
75668;BME280;64266;48.798;44.756;2023-02-02T08:13:21;101496.34;;;4.20;45.79
75668;BME280;64266;48.798;44.756;2023-02-02T08:18:24;101523.66;;;4.43;46.40
75668;BME280;64266;48.798;44.756;2023-02-02T08:23:27;101490.66;;;4.32;46.32
75668;BME280;64266;48.798;44.756;2023-02-02T08:28:31;101512.69;;;4.56;45.57
75668;BME280;64266;48.798;44.756;2023-02-02T08:33:34;101509.28;;;4.63;45.54
75668;BME280;64266;48.798;44.756;2023-02-02T08:38:38;101504.03;;;4.63;47.34
75668;BME280;64266;48.798;44.756;2023-02-02T08:43:42;101517.69;;;4.83;46.11
75668;BME280;64266;48.798;44.756;2023-02-02T08:48:46;101497.81;;;4.64;46.14
75668;BME280;64266;48.798;44.756;2023-02-02T08:53:49;101500.63;;;4.79;47.16
75668;BME280;64266;48.798;44.756;2023-02-02T08:58:55;101481.13;;;4.98;46.77
75668;BME280;64266;48.798;44.756;2023-02-02T09:04:05;101481.44;;;5.03;45.21
75668;BME280;64266;48.798;44.756;2023-02-02T09:09:11;101476.00;;;4.96;45.59
75668;BME280;64266;48.798;44.756;2023-02-02T09:14:14;101468.13;;;4.88;46.04
75668;BME280;64266;48.798;44.756;2023-02-02T09:19:18;101475.19;;;5.12;45.69
75668;BME280;64266;48.798;44.756;2023-02-02T09:24:21;101467.97;;;5.06;44.76
75668;BME280;64266;48.798;44.756;2023-02-02T09:29:24;101444.63;;;4.78;46.03
75668;BME280;64266;48.798;44.756;2023-02-02T09:34:27;101456.31;;;4.92;45.31
75668;BME280;64266;48.798;44.756;2023-02-02T09:39:30;101435.78;;;4.79;46.81
75668;BME280;64266;48.798;44.756;2023-02-02T09:49:51;101471.56;;;5.05;44.93
75668;BME280;64266;48.798;44.756;2023-02-02T09:55:01;101463.88;;;4.95;46.39
75668;BME280;64266;48.798;44.756;2023-02-02T10:00:18;101441.00;;;4.96;47.00
75668;BME280;64266;48.798;44.756;2023-02-02T10:05:41;101434.94;;;5.11;46.52
75668;BME280;64266;48.798;44.756;2023-02-02T10:10:47;101454.16;;;5.12;46.28
75668;BME280;64266;48.798;44.756;2023-02-02T10:16:03;101454.81;;;5.22;46.71
75668;BME280;64266;48.798;44.756;2023-02-02T10:37:19;101430.34;;;5.05;44.45
75668;BME280;64266;48.798;44.756;2023-02-02T10:47:36;101403.25;;;4.97;46.05
75668;BME280;64266;48.798;44.756;2023-02-02T10:52:44;101410.66;;;5.01;45.39
75668;BME280;64266;48.798;44.756;2023-02-02T10:57:49;101439.06;;;4.98;46.05
75668;BME280;64266;48.798;44.756;2023-02-02T11:02:52;101424.59;;;5.02;46.21
75668;BME280;64266;48.798;44.756;2023-02-02T11:07:55;101378.28;;;4.68;46.00
75668;BME280;64266;48.798;44.756;2023-02-02T11:12:59;101416.72;;;4.93;46.69
75668;BME280;64266;48.798;44.756;2023-02-02T11:23:34;101438.06;;;5.23;47.41
75668;BME280;64266;48.798;44.756;2023-02-02T11:28:39;101403.09;;;5.06;45.53
75668;BME280;64266;48.798;44.756;2023-02-02T11:33:41;101426.72;;;5.14;46.52
75668;BME280;64266;48.798;44.756;2023-02-02T11:38:44;101438.41;;;5.12;46.86
75668;BME280;64266;48.798;44.756;2023-02-02T11:43:49;101430.66;;;5.26;46.01
75668;BME280;64266;48.798;44.756;2023-02-02T11:49:02;101426.25;;;5.03;45.21
75668;BME280;64266;48.798;44.756;2023-02-02T11:59:45;101433.16;;;5.20;45.80
75668;BME280;64266;48.798;44.756;2023-02-02T12:04:54;101439.38;;;5.03;45.71
75668;BME280;64266;48.798;44.756;2023-02-02T12:10:53;101411.13;;;4.80;45.75
75668;BME280;64266;48.798;44.756;2023-02-02T12:26:33;101465.19;;;5.07;46.26
75668;BME280;64266;48.798;44.756;2023-02-02T12:37:15;101473.69;;;4.93;45.62
75668;BME280;64266;48.798;44.756;2023-02-02T12:42:48;101479.97;;;5.00;47.45
75668;BME280;64266;48.798;44.756;2023-02-02T12:53:11;101481.28;;;5.04;46.45
75668;BME280;64266;48.798;44.756;2023-02-02T13:03:54;101495.75;;;5.16;47.35
75668;BME280;64266;48.798;44.756;2023-02-02T13:09:44;101478.13;;;4.92;47.55
75668;BME280;64266;48.798;44.756;2023-02-02T13:14:54;101496.66;;;4.75;50.12
75668;BME280;64266;48.798;44.756;2023-02-02T13:25:33;101483.06;;;4.79;45.62
75668;BME280;64266;48.798;44.756;2023-02-02T13:30:37;101477.31;;;4.76;46.43
75668;BME280;64266;48.798;44.756;2023-02-02T13:40:46;101479.44;;;4.72;46.78
75668;BME280;64266;48.798;44.756;2023-02-02T14:01:35;101507.03;;;4.84;47.89
75668;BME280;64266;48.798;44.756;2023-02-02T14:07:10;101514.56;;;4.71;48.37
75668;BME280;64266;48.798;44.756;2023-02-02T14:12:26;101434.28;;;4.11;47.26
75668;BME280;64266;48.798;44.756;2023-02-02T14:22:44;101529.97;;;4.58;49.39
75668;BME280;64266;48.798;44.756;2023-02-02T14:27:55;101505.09;;;4.36;49.62
75668;BME280;64266;48.798;44.756;2023-02-02T14:43:51;101529.06;;;4.00;49.08
75668;BME280;64266;48.798;44.756;2023-02-02T14:54:04;101547.88;;;4.21;49.08
75668;BME280;64266;48.798;44.756;2023-02-02T14:59:17;101530.88;;;4.07;49.12
75668;BME280;64266;48.798;44.756;2023-02-02T15:09:26;101563.25;;;4.16;49.06
75668;BME280;64266;48.798;44.756;2023-02-02T15:20:21;101582.91;;;4.12;49.74
75668;BME280;64266;48.798;44.756;2023-02-02T15:25:45;101567.84;;;4.14;48.36
75668;BME280;64266;48.798;44.756;2023-02-02T15:30:57;101584.63;;;4.21;48.48
75668;BME280;64266;48.798;44.756;2023-02-02T15:36:05;101548.44;;;4.07;47.98
75668;BME280;64266;48.798;44.756;2023-02-02T15:41:33;101586.72;;;4.17;47.58
75668;BME280;64266;48.798;44.756;2023-02-02T15:46:37;101595.00;;;4.30;48.75
75668;BME280;64266;48.798;44.756;2023-02-02T15:51:45;101587.56;;;4.18;47.99
75668;BME280;64266;48.798;44.756;2023-02-02T15:56:51;101594.22;;;4.38;47.76
75668;BME280;64266;48.798;44.756;2023-02-02T16:07:36;101570.41;;;3.80;49.37
75668;BME280;64266;48.798;44.756;2023-02-02T16:12:38;101523.47;;;3.51;48.67
75668;BME280;64266;48.798;44.756;2023-02-02T16:17:42;101594.59;;;3.92;48.98
75668;BME280;64266;48.798;44.756;2023-02-02T16:22:47;101598.38;;;3.97;48.64
75668;BME280;64266;48.798;44.756;2023-02-02T16:27:52;101605.56;;;3.87;49.97
75668;BME280;64266;48.798;44.756;2023-02-02T16:32:55;101588.97;;;3.87;48.73
75668;BME280;64266;48.798;44.756;2023-02-02T16:43:24;101608.59;;;4.26;48.32
75668;BME280;64266;48.798;44.756;2023-02-02T16:53:40;101618.88;;;3.94;48.63
75668;BME280;64266;48.798;44.756;2023-02-02T16:58:43;101597.28;;;4.00;49.79
75668;BME280;64266;48.798;44.756;2023-02-02T17:03:52;101611.00;;;3.94;50.13
75668;BME280;64266;48.798;44.756;2023-02-02T17:09:13;101603.19;;;4.02;48.97
75668;BME280;64266;48.798;44.756;2023-02-02T17:14:23;101611.69;;;3.96;49.59
75668;BME280;64266;48.798;44.756;2023-02-02T17:19:29;101461.03;;;2.86;49.51
75668;BME280;64266;48.798;44.756;2023-02-02T17:24:43;101463.50;;;2.69;50.76
75668;BME280;64266;48.798;44.756;2023-02-02T17:29:46;101612.63;;;3.51;51.13
75668;BME280;64266;48.798;44.756;2023-02-02T17:34:49;101642.50;;;3.76;50.57
75668;BME280;64266;48.798;44.756;2023-02-02T17:39:52;101622.13;;;3.70;51.13
75668;BME280;64266;48.798;44.756;2023-02-02T17:44:55;101619.78;;;3.84;51.79
75668;BME280;64266;48.798;44.756;2023-02-02T17:49:57;101608.47;;;3.66;51.58
75668;BME280;64266;48.798;44.756;2023-02-02T17:55:00;101624.16;;;3.58;52.28
75668;BME280;64266;48.798;44.756;2023-02-02T18:00:04;101601.72;;;3.38;51.99
75668;BME280;64266;48.798;44.756;2023-02-02T18:05:08;101632.69;;;3.43;53.12
75668;BME280;64266;48.798;44.756;2023-02-02T18:10:13;101623.28;;;3.32;52.79
75668;BME280;64266;48.798;44.756;2023-02-02T18:15:16;101622.22;;;3.43;53.26
75668;BME280;64266;48.798;44.756;2023-02-02T18:20:21;101638.53;;;3.54;52.73
75668;BME280;64266;48.798;44.756;2023-02-02T18:25:24;101616.66;;;3.46;53.09
75668;BME280;64266;48.798;44.756;2023-02-02T18:30:27;101624.66;;;3.26;52.85
75668;BME280;64266;48.798;44.756;2023-02-02T18:35:30;101642.94;;;3.54;54.34
75668;BME280;64266;48.798;44.756;2023-02-02T18:40:32;101645.97;;;3.41;54.23
75668;BME280;64266;48.798;44.756;2023-02-02T18:45:35;101619.06;;;3.21;54.54
75668;BME280;64266;48.798;44.756;2023-02-02T18:50:38;101640.91;;;3.12;56.24
75668;BME280;64266;48.798;44.756;2023-02-02T18:55:40;101637.97;;;2.98;56.28
75668;BME280;64266;48.798;44.756;2023-02-02T19:00:43;101633.72;;;2.87;57.29
75668;BME280;64266;48.798;44.756;2023-02-02T19:05:47;101650.06;;;2.99;58.05
75668;BME280;64266;48.798;44.756;2023-02-02T19:11:16;101660.34;;;2.92;57.05
75668;BME280;64266;48.798;44.756;2023-02-02T19:16:27;101668.06;;;2.84;57.35
75668;BME280;64266;48.798;44.756;2023-02-02T19:21:30;101662.03;;;2.74;58.53
75668;BME280;64266;48.798;44.756;2023-02-02T19:26:34;101658.13;;;2.60;59.47
75668;BME280;64266;48.798;44.756;2023-02-02T19:31:39;101673.97;;;2.59;60.09
75668;BME280;64266;48.798;44.756;2023-02-02T19:36:42;101678.84;;;2.44;61.46
75668;BME280;64266;48.798;44.756;2023-02-02T19:41:48;101668.00;;;2.20;62.21
75668;BME280;64266;48.798;44.756;2023-02-02T19:46:52;101669.94;;;2.18;64.30
75668;BME280;64266;48.798;44.756;2023-02-02T19:51:59;101700.34;;;2.38;64.29
75668;BME280;64266;48.798;44.756;2023-02-02T19:57:34;101700.59;;;2.54;63.93
75668;BME280;64266;48.798;44.756;2023-02-02T20:02:47;101693.28;;;2.48;62.58
75668;BME280;64266;48.798;44.756;2023-02-02T20:08:18;101697.44;;;2.41;64.08
75668;BME280;64266;48.798;44.756;2023-02-02T20:13:49;101711.34;;;2.42;62.55
75668;BME280;64266;48.798;44.756;2023-02-02T20:18:53;101679.56;;;2.37;62.88
75668;BME280;64266;48.798;44.756;2023-02-02T20:23:57;101679.75;;;2.62;63.58
75668;BME280;64266;48.798;44.756;2023-02-02T20:40:05;101656.75;;;2.56;62.88
75668;BME280;64266;48.798;44.756;2023-02-02T20:45:09;101674.53;;;2.53;63.16
75668;BME280;64266;48.798;44.756;2023-02-02T20:50:13;101653.50;;;2.35;64.02
75668;BME280;64266;48.798;44.756;2023-02-02T20:55:17;101663.72;;;2.19;64.30
75668;BME280;64266;48.798;44.756;2023-02-02T21:00:22;101661.47;;;2.43;65.54
75668;BME280;64266;48.798;44.756;2023-02-02T21:05:29;101668.56;;;2.70;64.60
75668;BME280;64266;48.798;44.756;2023-02-02T21:10:32;101668.00;;;2.76;63.27
75668;BME280;64266;48.798;44.756;2023-02-02T21:15:36;101673.94;;;2.68;63.40
75668;BME280;64266;48.798;44.756;2023-02-02T21:20:38;101678.78;;;2.63;63.55
75668;BME280;64266;48.798;44.756;2023-02-02T21:25:41;101689.88;;;2.85;64.07
75668;BME280;64266;48.798;44.756;2023-02-02T21:30:43;101630.28;;;2.59;64.16
75668;BME280;64266;48.798;44.756;2023-02-02T21:35:47;101665.28;;;2.95;63.23
75668;BME280;64266;48.798;44.756;2023-02-02T21:40:53;101671.56;;;3.02;63.03
75668;BME280;64266;48.798;44.756;2023-02-02T21:45:58;101672.97;;;2.97;62.93
75668;BME280;64266;48.798;44.756;2023-02-02T21:51:18;101688.13;;;3.03;63.17
75668;BME280;64266;48.798;44.756;2023-02-02T21:56:26;101662.75;;;2.76;63.54
75668;BME280;64266;48.798;44.756;2023-02-02T22:01:35;101670.94;;;2.63;62.87
75668;BME280;64266;48.798;44.756;2023-02-02T22:06:44;101700.84;;;2.98;63.70
75668;BME280;64266;48.798;44.756;2023-02-02T22:11:50;101687.72;;;2.70;63.85
75668;BME280;64266;48.798;44.756;2023-02-02T22:16:56;101703.41;;;3.07;64.51
75668;BME280;64266;48.798;44.756;2023-02-02T22:22:16;101696.25;;;3.27;62.92
75668;BME280;64266;48.798;44.756;2023-02-02T22:27:22;101700.25;;;3.31;61.54
75668;BME280;64266;48.798;44.756;2023-02-02T22:32:25;101664.34;;;2.87;64.04
75668;BME280;64266;48.798;44.756;2023-02-02T22:37:28;101648.94;;;2.74;63.54
75668;BME280;64266;48.798;44.756;2023-02-02T22:42:32;101687.53;;;3.09;63.26
75668;BME280;64266;48.798;44.756;2023-02-02T22:47:36;101674.97;;;2.85;64.14
75668;BME280;64266;48.798;44.756;2023-02-02T22:52:38;101688.13;;;3.03;64.08
75668;BME280;64266;48.798;44.756;2023-02-02T22:57:42;101685.13;;;2.98;64.21
75668;BME280;64266;48.798;44.756;2023-02-02T23:02:45;101699.22;;;3.14;64.78
75668;BME280;64266;48.798;44.756;2023-02-02T23:07:49;101665.22;;;3.05;64.96
75668;BME280;64266;48.798;44.756;2023-02-02T23:12:54;101687.38;;;3.38;63.67
75668;BME280;64266;48.798;44.756;2023-02-02T23:17:58;101702.06;;;3.48;62.97
75668;BME280;64266;48.798;44.756;2023-02-02T23:23:00;101669.88;;;3.11;63.82
75668;BME280;64266;48.798;44.756;2023-02-02T23:28:03;101697.63;;;3.31;64.16
75668;BME280;64266;48.798;44.756;2023-02-02T23:33:05;101716.94;;;3.30;63.99
75668;BME280;64266;48.798;44.756;2023-02-02T23:38:08;101700.06;;;3.15;64.70
75668;BME280;64266;48.798;44.756;2023-02-02T23:43:10;101679.69;;;3.09;64.46
75668;BME280;64266;48.798;44.756;2023-02-02T23:48:12;101695.56;;;3.07;63.41
75668;BME280;64266;48.798;44.756;2023-02-02T23:53:15;101709.06;;;3.30;63.51
75668;BME280;64266;48.798;44.756;2023-02-02T23:58:17;101703.94;;;3.38;64.46
